sensor_id;sensor_type;location;lat;lon;timestamp;P1;durP1;ratioP1;P2;durP2;ratioP2
71629;SDS011;59479;51.902;8.212;2023-02-26T00:01:32;5.90;;;2.17;;
71629;SDS011;59479;51.902;8.212;2023-02-26T00:03:59;7.40;;;2.28;;
71629;SDS011;59479;51.902;8.212;2023-02-26T00:06:26;4.53;;;2.22;;
71629;SDS011;59479;51.902;8.212;2023-02-26T00:08:52;4.07;;;2.00;;
71629;SDS011;59479;51.902;8.212;2023-02-26T00:11:18;5.60;;;2.42;;
71629;SDS011;59479;51.902;8.212;2023-02-26T00:13:44;4.85;;;2.38;;
71629;SDS011;59479;51.902;8.212;2023-02-26T00:16:23;5.28;;;2.17;;
71629;SDS011;59479;51.902;8.212;2023-02-26T00:18:52;4.70;;;2.20;;
71629;SDS011;59479;51.902;8.212;2023-02-26T00:21:19;4.63;;;2.03;;
71629;SDS011;59479;51.902;8.212;2023-02-26T00:23:45;5.13;;;2.38;;
71629;SDS011;59479;51.902;8.212;2023-02-26T00:26:11;3.93;;;1.97;;
71629;SDS011;59479;51.902;8.212;2023-02-26T00:28:37;4.07;;;2.17;;
71629;SDS011;59479;51.902;8.212;2023-02-26T00:31:02;5.80;;;2.17;;
71629;SDS011;59479;51.902;8.212;2023-02-26T00:33:28;3.97;;;2.22;;
71629;SDS011;59479;51.902;8.212;2023-02-26T00:41:49;5.85;;;2.33;;
71629;SDS011;59479;51.902;8.212;2023-02-26T00:44:15;4.83;;;2.17;;
71629;SDS011;59479;51.902;8.212;2023-02-26T00:46:44;3.83;;;1.90;;
71629;SDS011;59479;51.902;8.212;2023-02-26T00:49:20;5.40;;;1.53;;
71629;SDS011;59479;51.902;8.212;2023-02-26T00:54:24;4.93;;;2.50;;
71629;SDS011;59479;51.902;8.212;2023-02-26T00:56:52;4.97;;;2.03;;
71629;SDS011;59479;51.902;8.212;2023-02-26T00:59:18;4.60;;;2.03;;
71629;SDS011;59479;51.902;8.212;2023-02-26T01:01:44;4.10;;;1.80;;
71629;SDS011;59479;51.902;8.212;2023-02-26T01:04:11;5.18;;;1.70;;
71629;SDS011;59479;51.902;8.212;2023-02-26T01:06:40;4.43;;;2.08;;
71629;SDS011;59479;51.902;8.212;2023-02-26T01:09:41;6.13;;;2.30;;
71629;SDS011;59479;51.902;8.212;2023-02-26T01:12:02;5.20;;;2.28;;
71629;SDS011;59479;51.902;8.212;2023-02-26T01:14:30;4.95;;;2.20;;
71629;SDS011;59479;51.902;8.212;2023-02-26T01:19:38;4.85;;;2.20;;
71629;SDS011;59479;51.902;8.212;2023-02-26T01:24:47;3.33;;;2.10;;
71629;SDS011;59479;51.902;8.212;2023-02-26T01:27:15;4.25;;;2.00;;
71629;SDS011;59479;51.902;8.212;2023-02-26T01:29:40;5.10;;;2.50;;
71629;SDS011;59479;51.902;8.212;2023-02-26T01:35:38;4.70;;;1.80;;
71629;SDS011;59479;51.902;8.212;2023-02-26T01:37:56;4.32;;;1.88;;
71629;SDS011;59479;51.902;8.212;2023-02-26T01:43:18;4.65;;;2.25;;
71629;SDS011;59479;51.902;8.212;2023-02-26T01:48:25;5.63;;;1.60;;
71629;SDS011;59479;51.902;8.212;2023-02-26T01:50:58;3.20;;;2.00;;
71629;SDS011;59479;51.902;8.212;2023-02-26T01:53:24;4.07;;;2.40;;
71629;SDS011;59479;51.902;8.212;2023-02-26T01:56:03;5.25;;;2.38;;
71629;SDS011;59479;51.902;8.212;2023-02-26T01:58:35;5.28;;;2.17;;
71629;SDS011;59479;51.902;8.212;2023-02-26T02:01:02;3.45;;;2.30;;
71629;SDS011;59479;51.902;8.212;2023-02-26T02:03:29;5.43;;;2.40;;
71629;SDS011;59479;51.902;8.212;2023-02-26T02:05:59;3.95;;;2.60;;
71629;SDS011;59479;51.902;8.212;2023-02-26T02:08:29;4.57;;;2.35;;
71629;SDS011;59479;51.902;8.212;2023-02-26T02:10:57;3.90;;;1.88;;
71629;SDS011;59479;51.902;8.212;2023-02-26T02:16:30;4.65;;;2.17;;
71629;SDS011;59479;51.902;8.212;2023-02-26T02:19:16;4.88;;;2.17;;
71629;SDS011;59479;51.902;8.212;2023-02-26T02:21:57;6.10;;;2.45;;
71629;SDS011;59479;51.902;8.212;2023-02-26T02:27:26;5.03;;;1.98;;
71629;SDS011;59479;51.902;8.212;2023-02-26T02:32:58;4.50;;;1.92;;
71629;SDS011;59479;51.902;8.212;2023-02-26T02:38:01;3.10;;;1.50;;
71629;SDS011;59479;51.902;8.212;2023-02-26T02:40:33;4.07;;;1.60;;
71629;SDS011;59479;51.902;8.212;2023-02-26T02:43:17;4.10;;;1.98;;
71629;SDS011;59479;51.902;8.212;2023-02-26T02:45:50;5.80;;;2.10;;
71629;SDS011;59479;51.902;8.212;2023-02-26T02:48:36;3.95;;;2.15;;
71629;SDS011;59479;51.902;8.212;2023-02-26T02:51:11;8.63;;;2.20;;
71629;SDS011;59479;51.902;8.212;2023-02-26T02:53:49;4.28;;;2.10;;
71629;SDS011;59479;51.902;8.212;2023-02-26T02:56:20;4.47;;;2.22;;
71629;SDS011;59479;51.902;8.212;2023-02-26T02:58:50;5.13;;;2.20;;
71629;SDS011;59479;51.902;8.212;2023-02-26T03:01:20;5.93;;;2.30;;
71629;SDS011;59479;51.902;8.212;2023-02-26T03:04:00;3.73;;;1.90;;
71629;SDS011;59479;51.902;8.212;2023-02-26T03:06:30;4.45;;;2.05;;
71629;SDS011;59479;51.902;8.212;2023-02-26T03:08:55;4.07;;;2.08;;
71629;SDS011;59479;51.902;8.212;2023-02-26T03:11:22;4.43;;;1.80;;
71629;SDS011;59479;51.902;8.212;2023-02-26T03:13:48;5.57;;;2.13;;
71629;SDS011;59479;51.902;8.212;2023-02-26T03:24:25;5.13;;;2.30;;
71629;SDS011;59479;51.902;8.212;2023-02-26T03:27:42;4.50;;;2.42;;
71629;SDS011;59479;51.902;8.212;2023-02-26T03:32:26;3.78;;;2.00;;
71629;SDS011;59479;51.902;8.212;2023-02-26T03:37:55;6.05;;;2.03;;
71629;SDS011;59479;51.902;8.212;2023-02-26T03:43:00;6.80;;;2.10;;
71629;SDS011;59479;51.902;8.212;2023-02-26T03:45:31;5.90;;;2.20;;
71629;SDS011;59479;51.902;8.212;2023-02-26T03:47:58;4.97;;;2.22;;
71629;SDS011;59479;51.902;8.212;2023-02-26T03:50:34;3.65;;;1.60;;
71629;SDS011;59479;51.902;8.212;2023-02-26T03:53:04;5.35;;;2.40;;
71629;SDS011;59479;51.902;8.212;2023-02-26T03:55:35;4.90;;;1.73;;
71629;SDS011;59479;51.902;8.212;2023-02-26T03:58:06;4.60;;;2.60;;
71629;SDS011;59479;51.902;8.212;2023-02-26T04:00:32;6.17;;;1.90;;
71629;SDS011;59479;51.902;8.212;2023-02-26T04:03:06;4.38;;;2.30;;
71629;SDS011;59479;51.902;8.212;2023-02-26T04:05:37;4.72;;;2.10;;
71629;SDS011;59479;51.902;8.212;2023-02-26T04:08:04;5.75;;;2.35;;
71629;SDS011;59479;51.902;8.212;2023-02-26T04:10:35;6.30;;;2.50;;
71629;SDS011;59479;51.902;8.212;2023-02-26T04:13:04;5.40;;;2.55;;
71629;SDS011;59479;51.902;8.212;2023-02-26T04:15:30;4.47;;;1.93;;
71629;SDS011;59479;51.902;8.212;2023-02-26T04:17:55;5.07;;;1.80;;
71629;SDS011;59479;51.902;8.212;2023-02-26T04:20:20;4.45;;;2.28;;
71629;SDS011;59479;51.902;8.212;2023-02-26T04:22:46;4.43;;;1.97;;
71629;SDS011;59479;51.902;8.212;2023-02-26T04:25:11;4.83;;;2.00;;
71629;SDS011;59479;51.902;8.212;2023-02-26T04:27:36;5.80;;;2.50;;
71629;SDS011;59479;51.902;8.212;2023-02-26T04:30:02;4.03;;;2.30;;
71629;SDS011;59479;51.902;8.212;2023-02-26T04:32:28;7.50;;;2.10;;
71629;SDS011;59479;51.902;8.212;2023-02-26T04:34:53;5.37;;;2.57;;
71629;SDS011;59479;51.902;8.212;2023-02-26T04:37:18;6.30;;;2.40;;
71629;SDS011;59479;51.902;8.212;2023-02-26T04:39:44;5.10;;;2.33;;
71629;SDS011;59479;51.902;8.212;2023-02-26T04:42:09;5.60;;;2.10;;
71629;SDS011;59479;51.902;8.212;2023-02-26T04:44:34;5.43;;;2.47;;
71629;SDS011;59479;51.902;8.212;2023-02-26T04:47:00;6.53;;;1.92;;
71629;SDS011;59479;51.902;8.212;2023-02-26T04:49:25;3.42;;;1.80;;
71629;SDS011;59479;51.902;8.212;2023-02-26T04:51:50;3.83;;;1.90;;
71629;SDS011;59479;51.902;8.212;2023-02-26T04:54:16;5.57;;;2.50;;
71629;SDS011;59479;51.902;8.212;2023-02-26T04:56:41;4.97;;;2.20;;
71629;SDS011;59479;51.902;8.212;2023-02-26T04:59:06;3.90;;;2.20;;
71629;SDS011;59479;51.902;8.212;2023-02-26T05:01:32;9.90;;;2.97;;
71629;SDS011;59479;51.902;8.212;2023-02-26T05:03:57;4.90;;;2.30;;
71629;SDS011;59479;51.902;8.212;2023-02-26T05:06:23;4.75;;;2.10;;
71629;SDS011;59479;51.902;8.212;2023-02-26T05:08:48;7.67;;;2.40;;
71629;SDS011;59479;51.902;8.212;2023-02-26T05:11:14;4.73;;;2.37;;
71629;SDS011;59479;51.902;8.212;2023-02-26T05:13:39;5.37;;;1.90;;
71629;SDS011;59479;51.902;8.212;2023-02-26T05:16:05;4.87;;;2.13;;
71629;SDS011;59479;51.902;8.212;2023-02-26T05:18:30;6.32;;;2.30;;
71629;SDS011;59479;51.902;8.212;2023-02-26T05:21:01;4.72;;;1.98;;
71629;SDS011;59479;51.902;8.212;2023-02-26T05:23:27;11.18;;;2.40;;
71629;SDS011;59479;51.902;8.212;2023-02-26T05:25:54;5.27;;;2.47;;
71629;SDS011;59479;51.902;8.212;2023-02-26T05:28:20;4.80;;;2.42;;
71629;SDS011;59479;51.902;8.212;2023-02-26T05:30:46;5.53;;;2.10;;
71629;SDS011;59479;51.902;8.212;2023-02-26T05:33:11;4.13;;;2.17;;
71629;SDS011;59479;51.902;8.212;2023-02-26T05:35:37;4.53;;;2.13;;
71629;SDS011;59479;51.902;8.212;2023-02-26T05:38:03;5.18;;;2.30;;
71629;SDS011;59479;51.902;8.212;2023-02-26T05:40:28;5.33;;;2.00;;
71629;SDS011;59479;51.902;8.212;2023-02-26T05:42:54;4.80;;;1.75;;
71629;SDS011;59479;51.902;8.212;2023-02-26T05:45:19;5.07;;;1.73;;
71629;SDS011;59479;51.902;8.212;2023-02-26T05:47:44;5.10;;;2.37;;
71629;SDS011;59479;51.902;8.212;2023-02-26T05:50:10;3.93;;;2.00;;
71629;SDS011;59479;51.902;8.212;2023-02-26T05:52:36;5.38;;;2.35;;
71629;SDS011;59479;51.902;8.212;2023-02-26T05:55:01;5.13;;;2.13;;
71629;SDS011;59479;51.902;8.212;2023-02-26T05:57:27;3.90;;;1.73;;
71629;SDS011;59479;51.902;8.212;2023-02-26T05:59:52;4.20;;;2.07;;
71629;SDS011;59479;51.902;8.212;2023-02-26T06:02:18;5.07;;;1.60;;
71629;SDS011;59479;51.902;8.212;2023-02-26T06:04:43;4.40;;;2.13;;
71629;SDS011;59479;51.902;8.212;2023-02-26T06:07:09;6.23;;;2.20;;
71629;SDS011;59479;51.902;8.212;2023-02-26T06:09:34;4.83;;;2.30;;
71629;SDS011;59479;51.902;8.212;2023-02-26T06:11:59;4.87;;;2.20;;
71629;SDS011;59479;51.902;8.212;2023-02-26T06:14:25;4.40;;;2.07;;
71629;SDS011;59479;51.902;8.212;2023-02-26T06:16:50;4.95;;;2.20;;
71629;SDS011;59479;51.902;8.212;2023-02-26T06:19:15;4.97;;;1.73;;
71629;SDS011;59479;51.902;8.212;2023-02-26T06:21:41;4.80;;;2.43;;
71629;SDS011;59479;51.902;8.212;2023-02-26T06:24:06;5.40;;;2.30;;
71629;SDS011;59479;51.902;8.212;2023-02-26T06:26:32;5.70;;;1.80;;
71629;SDS011;59479;51.902;8.212;2023-02-26T06:28:57;3.70;;;1.90;;
71629;SDS011;59479;51.902;8.212;2023-02-26T06:31:22;4.50;;;2.40;;
71629;SDS011;59479;51.902;8.212;2023-02-26T06:33:48;5.90;;;2.47;;
71629;SDS011;59479;51.902;8.212;2023-02-26T06:36:13;4.13;;;2.20;;
71629;SDS011;59479;51.902;8.212;2023-02-26T06:38:38;5.73;;;2.50;;
71629;SDS011;59479;51.902;8.212;2023-02-26T06:41:04;5.17;;;1.80;;
71629;SDS011;59479;51.902;8.212;2023-02-26T06:43:29;6.40;;;2.40;;
71629;SDS011;59479;51.902;8.212;2023-02-26T06:45:57;6.97;;;3.07;;
71629;SDS011;59479;51.902;8.212;2023-02-26T06:48:24;4.30;;;2.60;;
71629;SDS011;59479;51.902;8.212;2023-02-26T06:50:49;4.85;;;3.47;;
71629;SDS011;59479;51.902;8.212;2023-02-26T06:53:15;6.63;;;4.27;;
71629;SDS011;59479;51.902;8.212;2023-02-26T06:55:43;10.47;;;5.10;;
71629;SDS011;59479;51.902;8.212;2023-02-26T06:58:10;6.13;;;3.70;;
71629;SDS011;59479;51.902;8.212;2023-02-26T07:00:36;6.93;;;4.00;;
71629;SDS011;59479;51.902;8.212;2023-02-26T07:03:02;5.63;;;3.13;;
71629;SDS011;59479;51.902;8.212;2023-02-26T07:05:28;5.30;;;2.67;;
71629;SDS011;59479;51.902;8.212;2023-02-26T07:07:53;6.93;;;2.73;;
71629;SDS011;59479;51.902;8.212;2023-02-26T07:10:18;7.53;;;4.23;;
71629;SDS011;59479;51.902;8.212;2023-02-26T07:12:45;7.28;;;3.00;;
71629;SDS011;59479;51.902;8.212;2023-02-26T07:15:12;5.72;;;2.95;;
71629;SDS011;59479;51.902;8.212;2023-02-26T07:17:37;6.10;;;3.03;;
71629;SDS011;59479;51.902;8.212;2023-02-26T07:20:03;4.63;;;2.47;;
71629;SDS011;59479;51.902;8.212;2023-02-26T07:22:34;6.78;;;2.28;;
71629;SDS011;59479;51.902;8.212;2023-02-26T07:25:01;4.57;;;2.00;;
71629;SDS011;59479;51.902;8.212;2023-02-26T07:27:28;4.50;;;2.20;;
71629;SDS011;59479;51.902;8.212;2023-02-26T07:29:54;4.82;;;2.10;;
71629;SDS011;59479;51.902;8.212;2023-02-26T07:32:19;5.15;;;1.80;;
71629;SDS011;59479;51.902;8.212;2023-02-26T07:34:45;5.75;;;1.98;;
71629;SDS011;59479;51.902;8.212;2023-02-26T07:37:10;3.43;;;1.93;;
71629;SDS011;59479;51.902;8.212;2023-02-26T07:39:36;3.67;;;1.90;;
71629;SDS011;59479;51.902;8.212;2023-02-26T07:42:01;3.30;;;1.60;;
71629;SDS011;59479;51.902;8.212;2023-02-26T07:44:26;3.73;;;1.70;;
71629;SDS011;59479;51.902;8.212;2023-02-26T07:46:52;6.37;;;2.40;;
71629;SDS011;59479;51.902;8.212;2023-02-26T07:49:17;7.47;;;2.20;;
71629;SDS011;59479;51.902;8.212;2023-02-26T07:51:42;6.13;;;2.43;;
71629;SDS011;59479;51.902;8.212;2023-02-26T07:54:10;7.68;;;2.28;;
71629;SDS011;59479;51.902;8.212;2023-02-26T07:56:37;5.72;;;2.42;;
71629;SDS011;59479;51.902;8.212;2023-02-26T07:59:03;7.73;;;2.50;;
71629;SDS011;59479;51.902;8.212;2023-02-26T08:01:29;4.43;;;2.08;;
71629;SDS011;59479;51.902;8.212;2023-02-26T08:03:54;8.70;;;2.60;;
71629;SDS011;59479;51.902;8.212;2023-02-26T08:06:19;4.40;;;2.20;;
71629;SDS011;59479;51.902;8.212;2023-02-26T08:08:45;4.93;;;2.40;;
71629;SDS011;59479;51.902;8.212;2023-02-26T08:11:10;6.00;;;2.20;;
71629;SDS011;59479;51.902;8.212;2023-02-26T08:13:35;3.43;;;2.30;;
71629;SDS011;59479;51.902;8.212;2023-02-26T08:16:01;5.93;;;2.03;;
71629;SDS011;59479;51.902;8.212;2023-02-26T08:18:54;3.97;;;2.03;;
71629;SDS011;59479;51.902;8.212;2023-02-26T08:21:38;4.85;;;1.88;;
71629;SDS011;59479;51.902;8.212;2023-02-26T08:24:55;7.80;;;2.20;;
71629;SDS011;59479;51.902;8.212;2023-02-26T08:31:34;5.15;;;2.08;;
71629;SDS011;59479;51.902;8.212;2023-02-26T08:33:59;5.57;;;2.43;;
71629;SDS011;59479;51.902;8.212;2023-02-26T08:36:31;3.83;;;2.45;;
71629;SDS011;59479;51.902;8.212;2023-02-26T08:38:59;3.70;;;2.10;;
71629;SDS011;59479;51.902;8.212;2023-02-26T08:41:27;6.18;;;2.50;;
71629;SDS011;59479;51.902;8.212;2023-02-26T08:44:05;5.17;;;2.30;;
71629;SDS011;59479;51.902;8.212;2023-02-26T08:46:53;5.60;;;1.83;;
71629;SDS011;59479;51.902;8.212;2023-02-26T08:49:18;6.38;;;2.35;;
71629;SDS011;59479;51.902;8.212;2023-02-26T08:51:44;5.97;;;2.00;;
71629;SDS011;59479;51.902;8.212;2023-02-26T08:54:09;4.53;;;1.77;;
71629;SDS011;59479;51.902;8.212;2023-02-26T08:56:34;5.63;;;2.23;;
71629;SDS011;59479;51.902;8.212;2023-02-26T08:58:59;4.67;;;2.00;;
71629;SDS011;59479;51.902;8.212;2023-02-26T09:01:25;4.53;;;1.92;;
71629;SDS011;59479;51.902;8.212;2023-02-26T09:03:51;4.15;;;1.73;;
71629;SDS011;59479;51.902;8.212;2023-02-26T09:06:17;7.57;;;1.70;;
71629;SDS011;59479;51.902;8.212;2023-02-26T09:08:42;4.70;;;2.10;;
71629;SDS011;59479;51.902;8.212;2023-02-26T09:11:07;4.32;;;1.70;;
71629;SDS011;59479;51.902;8.212;2023-02-26T09:13:34;4.00;;;2.53;;
71629;SDS011;59479;51.902;8.212;2023-02-26T09:15:59;7.23;;;1.83;;
71629;SDS011;59479;51.902;8.212;2023-02-26T09:18:25;3.50;;;1.67;;
71629;SDS011;59479;51.902;8.212;2023-02-26T09:20:50;6.37;;;1.53;;
71629;SDS011;59479;51.902;8.212;2023-02-26T09:23:16;4.83;;;2.00;;
71629;SDS011;59479;51.902;8.212;2023-02-26T09:25:41;3.47;;;1.70;;
71629;SDS011;59479;51.902;8.212;2023-02-26T09:28:06;4.83;;;2.03;;
71629;SDS011;59479;51.902;8.212;2023-02-26T09:30:32;4.30;;;1.70;;
71629;SDS011;59479;51.902;8.212;2023-02-26T09:32:57;4.63;;;1.83;;
71629;SDS011;59479;51.902;8.212;2023-02-26T09:35:22;6.82;;;2.10;;
71629;SDS011;59479;51.902;8.212;2023-02-26T09:37:48;3.53;;;1.57;;
71629;SDS011;59479;51.902;8.212;2023-02-26T09:42:56;4.03;;;1.50;;
71629;SDS011;59479;51.902;8.212;2023-02-26T09:45:30;4.65;;;2.20;;
71629;SDS011;59479;51.902;8.212;2023-02-26T09:48:00;3.92;;;1.80;;
71629;SDS011;59479;51.902;8.212;2023-02-26T09:50:45;3.90;;;1.48;;
71629;SDS011;59479;51.902;8.212;2023-02-26T09:56:17;3.40;;;1.57;;
71629;SDS011;59479;51.902;8.212;2023-02-26T09:58:46;3.83;;;1.52;;
71629;SDS011;59479;51.902;8.212;2023-02-26T10:01:18;6.07;;;2.08;;
71629;SDS011;59479;51.902;8.212;2023-02-26T10:03:56;3.63;;;1.73;;
71629;SDS011;59479;51.902;8.212;2023-02-26T10:06:43;4.90;;;1.50;;
71629;SDS011;59479;51.902;8.212;2023-02-26T10:12:02;4.75;;;1.58;;
71629;SDS011;59479;51.902;8.212;2023-02-26T10:17:15;5.07;;;1.92;;
71629;SDS011;59479;51.902;8.212;2023-02-26T10:19:47;5.03;;;1.77;;
71629;SDS011;59479;51.902;8.212;2023-02-26T10:35:52;3.45;;;1.90;;
71629;SDS011;59479;51.902;8.212;2023-02-26T10:38:23;6.55;;;1.65;;
71629;SDS011;59479;51.902;8.212;2023-02-26T10:40:56;4.88;;;1.90;;
71629;SDS011;59479;51.902;8.212;2023-02-26T10:43:27;4.43;;;1.80;;
71629;SDS011;59479;51.902;8.212;2023-02-26T10:51:43;4.63;;;2.00;;
71629;SDS011;59479;51.902;8.212;2023-02-26T10:54:14;3.50;;;1.60;;
71629;SDS011;59479;51.902;8.212;2023-02-26T10:56:45;4.00;;;1.58;;
71629;SDS011;59479;51.902;8.212;2023-02-26T10:59:11;3.73;;;1.70;;
71629;SDS011;59479;51.902;8.212;2023-02-26T11:01:36;3.93;;;1.90;;
71629;SDS011;59479;51.902;8.212;2023-02-26T11:04:03;3.57;;;1.63;;
71629;SDS011;59479;51.902;8.212;2023-02-26T11:06:43;5.68;;;1.80;;
71629;SDS011;59479;51.902;8.212;2023-02-26T11:09:17;3.03;;;1.60;;
71629;SDS011;59479;51.902;8.212;2023-02-26T11:12:00;3.80;;;1.40;;
71629;SDS011;59479;51.902;8.212;2023-02-26T11:14:30;4.40;;;2.00;;
71629;SDS011;59479;51.902;8.212;2023-02-26T11:16:57;4.40;;;1.43;;
71629;SDS011;59479;51.902;8.212;2023-02-26T11:19:29;3.88;;;1.40;;
71629;SDS011;59479;51.902;8.212;2023-02-26T11:21:57;3.88;;;1.65;;
71629;SDS011;59479;51.902;8.212;2023-02-26T11:24:34;4.13;;;1.20;;
71629;SDS011;59479;51.902;8.212;2023-02-26T11:27:07;3.30;;;1.40;;
71629;SDS011;59479;51.902;8.212;2023-02-26T11:29:45;4.27;;;1.33;;
71629;SDS011;59479;51.902;8.212;2023-02-26T11:32:29;3.28;;;1.70;;
71629;SDS011;59479;51.902;8.212;2023-02-26T11:34:58;4.80;;;1.88;;
71629;SDS011;59479;51.902;8.212;2023-02-26T11:37:33;3.75;;;1.42;;
71629;SDS011;59479;51.902;8.212;2023-02-26T11:43:12;3.53;;;1.20;;
71629;SDS011;59479;51.902;8.212;2023-02-26T11:46:12;3.25;;;1.52;;
71629;SDS011;59479;51.902;8.212;2023-02-26T11:48:54;3.70;;;1.60;;
71629;SDS011;59479;51.902;8.212;2023-02-26T11:51:41;4.03;;;1.35;;
71629;SDS011;59479;51.902;8.212;2023-02-26T11:57:15;2.97;;;1.30;;
71629;SDS011;59479;51.902;8.212;2023-02-26T11:59:50;3.53;;;1.40;;
71629;SDS011;59479;51.902;8.212;2023-02-26T12:02:32;2.78;;;1.70;;
71629;SDS011;59479;51.902;8.212;2023-02-26T12:05:09;3.00;;;1.13;;
71629;SDS011;59479;51.902;8.212;2023-02-26T12:07:46;3.13;;;1.80;;
71629;SDS011;59479;51.902;8.212;2023-02-26T12:10:32;3.93;;;1.50;;
71629;SDS011;59479;51.902;8.212;2023-02-26T12:16:23;3.25;;;2.10;;
71629;SDS011;59479;51.902;8.212;2023-02-26T12:29:20;3.10;;;1.50;;
71629;SDS011;59479;51.902;8.212;2023-02-26T12:38:47;3.47;;;1.80;;
71629;SDS011;59479;51.902;8.212;2023-02-26T12:45:35;3.83;;;1.45;;
71629;SDS011;59479;51.902;8.212;2023-02-26T12:47:34;3.08;;;1.75;;
71629;SDS011;59479;51.902;8.212;2023-02-26T13:20:33;3.45;;;2.00;;
71629;SDS011;59479;51.902;8.212;2023-02-26T13:35:06;3.92;;;1.73;;
71629;SDS011;59479;51.902;8.212;2023-02-26T14:00:52;5.32;;;1.90;;
71629;SDS011;59479;51.902;8.212;2023-02-26T14:26:33;4.40;;;1.70;;
71629;SDS011;59479;51.902;8.212;2023-02-26T14:40:18;3.30;;;1.92;;
71629;SDS011;59479;51.902;8.212;2023-02-26T14:45:52;3.97;;;1.90;;
71629;SDS011;59479;51.902;8.212;2023-02-26T14:48:25;3.47;;;1.85;;
71629;SDS011;59479;51.902;8.212;2023-02-26T15:26:02;4.85;;;1.80;;
71629;SDS011;59479;51.902;8.212;2023-02-26T15:29:13;2.90;;;1.63;;
71629;SDS011;59479;51.902;8.212;2023-02-26T15:32:21;4.80;;;1.30;;
71629;SDS011;59479;51.902;8.212;2023-02-26T15:35:14;3.25;;;1.30;;
71629;SDS011;59479;51.902;8.212;2023-02-26T15:41:30;3.60;;;1.70;;
71629;SDS011;59479;51.902;8.212;2023-02-26T15:44:29;3.25;;;1.70;;
71629;SDS011;59479;51.902;8.212;2023-02-26T15:47:15;3.87;;;1.70;;
71629;SDS011;59479;51.902;8.212;2023-02-26T15:54:03;6.03;;;2.40;;
71629;SDS011;59479;51.902;8.212;2023-02-26T15:57:05;4.03;;;2.10;;
71629;SDS011;59479;51.902;8.212;2023-02-26T15:59:34;4.65;;;2.13;;
71629;SDS011;59479;51.902;8.212;2023-02-26T16:05:33;2.83;;;1.40;;
71629;SDS011;59479;51.902;8.212;2023-02-26T16:12:11;3.97;;;1.58;;
71629;SDS011;59479;51.902;8.212;2023-02-26T16:18:53;3.87;;;1.60;;
71629;SDS011;59479;51.902;8.212;2023-02-26T16:25:39;5.30;;;1.88;;
71629;SDS011;59479;51.902;8.212;2023-02-26T16:32:36;3.65;;;1.90;;
71629;SDS011;59479;51.902;8.212;2023-02-26T16:39:43;3.67;;;1.70;;
71629;SDS011;59479;51.902;8.212;2023-02-26T16:42:19;4.35;;;1.90;;
71629;SDS011;59479;51.902;8.212;2023-02-26T16:49:32;3.17;;;1.80;;
71629;SDS011;59479;51.902;8.212;2023-02-26T16:52:20;4.70;;;1.83;;
71629;SDS011;59479;51.902;8.212;2023-02-26T16:59:05;6.43;;;2.97;;
71629;SDS011;59479;51.902;8.212;2023-02-26T17:02:41;4.68;;;2.08;;
71629;SDS011;59479;51.902;8.212;2023-02-26T17:05:25;4.53;;;2.05;;
71629;SDS011;59479;51.902;8.212;2023-02-26T17:10:39;3.65;;;1.90;;
71629;SDS011;59479;51.902;8.212;2023-02-26T17:17:04;4.93;;;2.30;;
71629;SDS011;59479;51.902;8.212;2023-02-26T17:20:18;7.20;;;3.75;;
71629;SDS011;59479;51.902;8.212;2023-02-26T17:25:51;6.50;;;3.58;;
71629;SDS011;59479;51.902;8.212;2023-02-26T17:28:28;6.75;;;3.90;;
71629;SDS011;59479;51.902;8.212;2023-02-26T17:31:04;5.68;;;3.00;;
71629;SDS011;59479;51.902;8.212;2023-02-26T17:33:42;6.32;;;3.58;;
71629;SDS011;59479;51.902;8.212;2023-02-26T17:36:15;7.53;;;3.80;;
71629;SDS011;59479;51.902;8.212;2023-02-26T17:38:44;6.70;;;3.47;;
71629;SDS011;59479;51.902;8.212;2023-02-26T17:41:34;4.72;;;3.08;;
71629;SDS011;59479;51.902;8.212;2023-02-26T17:44:08;4.85;;;2.95;;
71629;SDS011;59479;51.902;8.212;2023-02-26T17:46:57;5.22;;;3.13;;
71629;SDS011;59479;51.902;8.212;2023-02-26T17:49:37;5.30;;;2.73;;
71629;SDS011;59479;51.902;8.212;2023-02-26T17:52:33;5.47;;;2.40;;
71629;SDS011;59479;51.902;8.212;2023-02-26T17:55:01;5.00;;;3.13;;
71629;SDS011;59479;51.902;8.212;2023-02-26T17:57:32;6.28;;;2.90;;
71629;SDS011;59479;51.902;8.212;2023-02-26T17:59:58;6.75;;;3.75;;
71629;SDS011;59479;51.902;8.212;2023-02-26T18:05:37;6.28;;;3.40;;
71629;SDS011;59479;51.902;8.212;2023-02-26T18:14:07;4.60;;;2.70;;
71629;SDS011;59479;51.902;8.212;2023-02-26T18:16:49;5.07;;;2.50;;
71629;SDS011;59479;51.902;8.212;2023-02-26T18:20:00;3.80;;;2.33;;
71629;SDS011;59479;51.902;8.212;2023-02-26T18:22:34;4.43;;;2.20;;
71629;SDS011;59479;51.902;8.212;2023-02-26T18:25:01;4.03;;;2.55;;
71629;SDS011;59479;51.902;8.212;2023-02-26T18:27:34;5.18;;;2.85;;
71629;SDS011;59479;51.902;8.212;2023-02-26T18:30:30;7.13;;;3.10;;
71629;SDS011;59479;51.902;8.212;2023-02-26T18:33:24;4.45;;;2.50;;
71629;SDS011;59479;51.902;8.212;2023-02-26T18:36:02;5.80;;;2.47;;
71629;SDS011;59479;51.902;8.212;2023-02-26T18:38:50;4.70;;;2.70;;
71629;SDS011;59479;51.902;8.212;2023-02-26T18:44:42;12.57;;;3.03;;
71629;SDS011;59479;51.902;8.212;2023-02-26T18:47:11;5.15;;;3.08;;
71629;SDS011;59479;51.902;8.212;2023-02-26T18:49:43;6.50;;;2.70;;
71629;SDS011;59479;51.902;8.212;2023-02-26T18:52:17;5.53;;;3.03;;
71629;SDS011;59479;51.902;8.212;2023-02-26T18:55:09;4.63;;;2.60;;
71629;SDS011;59479;51.902;8.212;2023-02-26T18:57:55;6.30;;;3.35;;
71629;SDS011;59479;51.902;8.212;2023-02-26T19:00:43;5.10;;;3.08;;
71629;SDS011;59479;51.902;8.212;2023-02-26T19:03:26;6.53;;;2.10;;
71629;SDS011;59479;51.902;8.212;2023-02-26T19:06:02;6.20;;;2.72;;
71629;SDS011;59479;51.902;8.212;2023-02-26T19:08:58;5.95;;;3.13;;
71629;SDS011;59479;51.902;8.212;2023-02-26T19:11:32;6.03;;;2.47;;
71629;SDS011;59479;51.902;8.212;2023-02-26T19:14:07;4.60;;;2.95;;
71629;SDS011;59479;51.902;8.212;2023-02-26T19:16:45;4.27;;;2.17;;
71629;SDS011;59479;51.902;8.212;2023-02-26T19:19:19;5.40;;;2.65;;
71629;SDS011;59479;51.902;8.212;2023-02-26T19:22:08;6.30;;;2.70;;
71629;SDS011;59479;51.902;8.212;2023-02-26T19:28:04;6.57;;;2.95;;
71629;SDS011;59479;51.902;8.212;2023-02-26T19:30:41;4.60;;;2.30;;
71629;SDS011;59479;51.902;8.212;2023-02-26T19:33:38;5.05;;;2.60;;
71629;SDS011;59479;51.902;8.212;2023-02-26T19:40:06;4.65;;;2.17;;
71629;SDS011;59479;51.902;8.212;2023-02-26T19:46:28;4.87;;;2.20;;
71629;SDS011;59479;51.902;8.212;2023-02-26T19:49:28;3.72;;;1.95;;
71629;SDS011;59479;51.902;8.212;2023-02-26T19:52:16;4.65;;;2.50;;
71629;SDS011;59479;51.902;8.212;2023-02-26T19:59:01;5.28;;;2.30;;
71629;SDS011;59479;51.902;8.212;2023-02-26T20:02:05;7.10;;;2.53;;
71629;SDS011;59479;51.902;8.212;2023-02-26T20:05:12;20.92;;;8.10;;
71629;SDS011;59479;51.902;8.212;2023-02-26T20:08:31;28.08;;;11.90;;
71629;SDS011;59479;51.902;8.212;2023-02-26T20:11:10;36.42;;;15.52;;
71629;SDS011;59479;51.902;8.212;2023-02-26T20:14:15;33.05;;;15.00;;
71629;SDS011;59479;51.902;8.212;2023-02-26T20:16:43;37.97;;;16.00;;
71629;SDS011;59479;51.902;8.212;2023-02-26T20:19:19;28.25;;;12.88;;
71629;SDS011;59479;51.902;8.212;2023-02-26T20:21:50;19.35;;;9.98;;
71629;SDS011;59479;51.902;8.212;2023-02-26T20:24:15;17.27;;;8.03;;
71629;SDS011;59479;51.902;8.212;2023-02-26T20:26:44;14.15;;;7.22;;
71629;SDS011;59479;51.902;8.212;2023-02-26T20:29:10;13.63;;;6.30;;
71629;SDS011;59479;51.902;8.212;2023-02-26T20:31:35;12.33;;;5.63;;
71629;SDS011;59479;51.902;8.212;2023-02-26T20:34:01;10.15;;;5.75;;
71629;SDS011;59479;51.902;8.212;2023-02-26T20:36:26;8.83;;;4.50;;
71629;SDS011;59479;51.902;8.212;2023-02-26T20:38:52;10.07;;;4.87;;
71629;SDS011;59479;51.902;8.212;2023-02-26T20:41:20;9.15;;;4.80;;
71629;SDS011;59479;51.902;8.212;2023-02-26T20:43:45;10.60;;;5.40;;
71629;SDS011;59479;51.902;8.212;2023-02-26T20:46:11;9.10;;;5.23;;
71629;SDS011;59479;51.902;8.212;2023-02-26T20:48:37;7.93;;;4.68;;
71629;SDS011;59479;51.902;8.212;2023-02-26T20:51:06;9.57;;;4.90;;